createdAt,value
2022-10-19T00:00:51.381Z,99721.34
2022-10-19T00:03:22.299Z,99727.72
2022-10-19T00:05:50.430Z,99728.75
2022-10-19T00:08:17.547Z,99724.59
2022-10-19T00:10:44.957Z,99720.34
2022-10-19T00:13:12.067Z,99711.13
2022-10-19T00:15:41.939Z,99715.16
2022-10-19T00:18:09.401Z,99718.06
2022-10-19T00:20:36.620Z,99706.59
2022-10-19T00:23:03.827Z,99706.41
2022-10-19T00:25:31.197Z,99700.88
2022-10-19T00:27:58.312Z,99696.66
2022-10-19T00:30:25.435Z,99706.41
2022-10-19T00:32:53.828Z,99702.03
2022-10-19T00:35:20.954Z,99706.09
2022-10-19T00:37:48.050Z,99703.09
2022-10-19T00:40:15.432Z,99705.22
2022-10-19T00:42:42.556Z,99698.94
2022-10-19T00:45:18.432Z,99681.28
2022-10-19T00:47:45.978Z,99691.22
2022-10-19T00:50:13.535Z,99682.25
2022-10-19T00:52:40.652Z,99680.47
2022-10-19T00:55:08.256Z,99678.22
2022-10-19T00:57:35.358Z,99657.00
2022-10-19T01:00:04.517Z,99650.84
2022-10-19T01:02:32.160Z,99655.22
2022-10-19T01:04:59.496Z,99659.22
2022-10-19T01:07:26.726Z,99656.50
2022-10-19T01:09:54.300Z,99657.94
2022-10-19T01:12:32.824Z,99651.16
2022-10-19T01:15:10.558Z,99654.28
2022-10-19T01:17:50.100Z,99648.94
2022-10-19T01:20:36.477Z,99651.44
2022-10-19T01:23:22.242Z,99640.59
2022-10-19T01:26:01.073Z,99638.19
2022-10-19T01:28:47.205Z,99629.34
2022-10-19T01:31:32.829Z,99640.13
2022-10-19T01:34:03.096Z,99638.66
2022-10-19T01:36:53.460Z,99632.63
2022-10-19T01:39:23.620Z,99627.22
2022-10-19T01:42:00.163Z,99622.91
2022-10-19T01:44:33.067Z,99618.56
2022-10-19T01:47:01.305Z,99618.22
2022-10-19T01:49:37.769Z,99613.69
2022-10-19T01:52:05.680Z,99609.50
2022-10-19T01:54:34.542Z,99606.13
2022-10-19T01:57:01.925Z,99596.97
2022-10-19T01:59:29.328Z,99598.78
2022-10-19T02:01:56.471Z,99611.41
2022-10-19T02:04:24.598Z,99613.28
2022-10-19T02:06:54.853Z,99606.81
2022-10-19T02:09:21.977Z,99623.53
2022-10-19T02:11:51.342Z,99617.69
2022-10-19T02:14:22.680Z,99626.50
2022-10-19T02:16:51.679Z,99628.78
2022-10-19T02:19:20.217Z,99626.97
2022-10-19T02:21:47.350Z,99618.88
2022-10-19T02:24:14.746Z,99627.59
2022-10-19T02:26:41.865Z,99615.97
2022-10-19T02:29:09.159Z,99611.22
2022-10-19T02:31:36.558Z,99621.63
2022-10-19T02:34:03.677Z,99626.50
2022-10-19T02:36:30.910Z,99620.06
2022-10-19T02:38:58.290Z,99621.50
2022-10-19T02:41:33.013Z,99628.81
2022-10-19T02:44:13.592Z,99617.34
2022-10-19T02:46:41.826Z,99609.81
2022-10-19T02:49:09.430Z,99610.34
2022-10-19T02:51:37.444Z,99613.75
2022-10-19T02:54:05.592Z,99620.22
2022-10-19T02:56:33.408Z,99618.50
2022-10-19T02:59:00.689Z,99619.78
2022-10-19T03:01:27.805Z,99616.81
2022-10-19T03:03:55.190Z,99625.88
2022-10-19T03:06:22.328Z,99624.56
2022-10-19T03:08:49.435Z,99628.34
2022-10-19T03:11:16.811Z,99628.53
2022-10-19T03:13:43.989Z,99633.34
2022-10-19T03:16:11.654Z,99632.22
2022-10-19T03:18:39.295Z,99636.78
2022-10-19T03:21:07.393Z,99642.75
2022-10-19T03:23:34.723Z,99648.16
2022-10-19T03:26:02.090Z,99640.03
2022-10-19T03:28:29.215Z,99643.69
2022-10-19T03:30:56.405Z,99634.63
2022-10-19T03:36:28.889Z,99641.88
2022-10-19T03:38:57.334Z,99642.09
2022-10-19T03:41:25.319Z,99636.47
2022-10-19T03:43:52.468Z,99639.00
2022-10-19T03:46:20.047Z,99645.63
2022-10-19T03:48:47.481Z,99652.53
2022-10-19T03:51:15.349Z,99640.06
2022-10-19T03:53:42.933Z,99647.50
2022-10-19T03:56:14.164Z,99652.41
2022-10-19T03:58:42.221Z,99644.44
2022-10-19T04:01:10.657Z,99647.53
2022-10-19T04:03:38.110Z,99644.75
2022-10-19T04:06:09.462Z,99641.22
2022-10-19T04:08:36.612Z,99641.75
2022-10-19T04:11:05.033Z,99634.31
2022-10-19T04:13:32.255Z,99635.97
2022-10-19T04:15:59.500Z,99649.34
2022-10-19T04:18:26.910Z,99645.63
2022-10-19T04:20:57.887Z,99654.38
2022-10-19T04:23:26.607Z,99653.88
2022-10-19T04:25:59.109Z,99662.19
2022-10-19T04:28:26.279Z,99661.69
2022-10-19T04:30:53.725Z,99666.13
2022-10-19T04:33:20.839Z,99663.56
2022-10-19T04:35:47.955Z,99653.72
2022-10-19T04:38:16.362Z,99658.91
2022-10-19T04:40:45.825Z,99652.00
2022-10-19T04:43:12.950Z,99644.97
2022-10-19T04:45:40.376Z,99658.06
2022-10-19T04:48:07.483Z,99663.97
2022-10-19T04:50:34.654Z,99671.00
2022-10-19T04:53:02.021Z,99664.84
2022-10-19T04:55:29.189Z,99661.47
2022-10-19T04:57:56.388Z,99649.06
2022-10-19T05:00:23.775Z,99639.81
2022-10-19T05:02:50.881Z,99633.50
2022-10-19T05:05:17.979Z,99637.97
2022-10-19T05:07:45.404Z,99638.91
2022-10-19T05:10:12.518Z,99634.53
2022-10-19T05:12:39.643Z,99637.94
2022-10-19T05:15:07.273Z,99643.25
2022-10-19T05:17:34.593Z,99658.97
2022-10-19T05:20:01.927Z,99658.97
2022-10-19T05:22:29.313Z,99658.94
2022-10-19T05:24:58.169Z,99660.66
2022-10-19T05:27:25.508Z,99653.56
2022-10-19T05:29:52.901Z,99653.62
2022-10-19T05:32:20.007Z,99651.94
2022-10-19T05:34:47.130Z,99653.69
2022-10-19T05:37:15.868Z,99665.87
2022-10-19T05:39:43.249Z,99664.97
2022-10-19T05:42:10.412Z,99655.97
2022-10-19T05:47:06.259Z,99670.28
2022-10-19T05:49:41.965Z,99666.75
2022-10-19T05:52:09.506Z,99674.59
2022-10-19T05:54:36.982Z,99675.50
2022-10-19T05:57:04.713Z,99673.78
2022-10-19T05:59:32.336Z,99677.22
2022-10-19T06:02:03.399Z,99689.31
2022-10-19T06:04:30.984Z,99685.09
2022-10-19T06:06:58.097Z,99683.34
2022-10-19T06:09:25.560Z,99686.78
2022-10-19T06:11:53.070Z,99675.53
2022-10-19T06:14:20.176Z,99690.28
2022-10-19T06:16:47.772Z,99701.59
2022-10-19T06:19:15.316Z,99702.50
2022-10-19T06:21:45.670Z,99700.69
2022-10-19T06:24:13.382Z,99708.56
2022-10-19T06:26:40.890Z,99707.75
2022-10-19T06:29:08.240Z,99708.62
2022-10-19T06:31:37.318Z,99707.59
2022-10-19T06:34:04.837Z,99717.34
2022-10-19T06:36:32.228Z,99720.75
2022-10-19T06:39:02.378Z,99720.53
2022-10-19T06:41:30.605Z,99721.66
2022-10-19T06:44:01.827Z,99718.09
2022-10-19T06:46:29.053Z,99720.22
2022-10-19T06:48:57.575Z,99718.97
2022-10-19T06:51:26.053Z,99725.09
2022-10-19T06:53:56.503Z,99731.28
2022-10-19T06:56:25.345Z,99729.44
2022-10-19T06:58:52.473Z,99739.12
2022-10-19T07:01:20.176Z,99736.41
2022-10-19T07:03:47.943Z,99735.63
2022-10-19T07:06:15.080Z,99746.91
2022-10-19T07:08:43.939Z,99750.47
2022-10-19T07:11:12.994Z,99757.44
2022-10-19T07:13:40.213Z,99746.91
2022-10-19T07:16:08.454Z,99756.56
2022-10-19T07:18:36.165Z,99750.47
2022-10-19T07:21:04.244Z,99758.31
2022-10-19T07:23:32.033Z,99757.44
2022-10-19T07:26:01.868Z,99764.41
2022-10-19T07:28:29.388Z,99761.62
2022-10-19T07:30:56.711Z,99766.13
2022-10-19T07:33:24.103Z,99768.34
2022-10-19T07:35:51.224Z,99758.75
2022-10-19T07:38:18.374Z,99769.53
2022-10-19T07:40:47.432Z,99764.78
2022-10-19T07:43:14.789Z,99775.44
2022-10-19T07:45:41.905Z,99772.59
2022-10-19T07:48:09.282Z,99780.03
2022-10-19T07:50:36.403Z,99778.28
2022-10-19T07:53:05.302Z,99784.66
2022-10-19T07:55:34.058Z,99782.31
2022-10-19T07:58:02.086Z,99773.31
2022-10-19T08:00:29.877Z,99766.56
2022-10-19T08:03:19.327Z,99773.09
2022-10-19T08:05:44.523Z,99774.69
2022-10-19T08:08:11.947Z,99776.91
2022-10-19T08:10:39.112Z,99761.25
2022-10-19T08:13:06.248Z,99766.59
2022-10-19T08:15:33.716Z,99751.28
2022-10-19T08:18:01.167Z,99757.59
2022-10-19T08:20:28.348Z,99755.81
2022-10-19T08:22:58.831Z,99764.28
2022-10-19T08:25:26.346Z,99763.03
2022-10-19T08:27:53.530Z,99768.09
2022-10-19T08:30:21.025Z,99776.94
2022-10-19T08:32:48.220Z,99772.81
2022-10-19T08:35:15.365Z,99772.56
2022-10-19T08:37:46.071Z,99772.69
2022-10-19T08:40:17.613Z,99765.88
2022-10-19T08:42:58.957Z,99765.59
2022-10-19T08:45:27.423Z,99759.88
2022-10-19T08:48:04.115Z,99762.53
2022-10-19T08:50:36.683Z,99765.75
2022-10-19T08:53:05.766Z,99767.94
2022-10-19T08:55:42.146Z,99767.03
2022-10-19T08:58:28.373Z,99769.91
2022-10-19T09:00:58.315Z,99760.41
2022-10-19T09:03:58.968Z,99767.78
2022-10-19T09:06:30.025Z,99773.94
2022-10-19T09:08:57.677Z,99757.22
2022-10-19T09:11:26.090Z,99765.06
2022-10-19T09:14:06.287Z,99767.44
2022-10-19T09:16:35.094Z,99759.34
2022-10-19T09:19:02.813Z,99768.16
2022-10-19T09:21:40.826Z,99769.72
2022-10-19T09:24:25.839Z,99757.59
2022-10-19T09:26:53.806Z,99765.16
2022-10-19T09:29:26.358Z,99760.50
2022-10-19T09:31:54.380Z,99765.37
2022-10-19T09:34:24.924Z,99763.97
2022-10-19T09:36:58.777Z,99764.91
2022-10-19T09:39:29.343Z,99768.47
2022-10-19T09:42:04.921Z,99764.78
2022-10-19T09:44:32.319Z,99769.44
2022-10-19T09:47:18.391Z,99778.66
2022-10-19T09:49:46.581Z,99769.97
2022-10-19T09:52:37.087Z,99778.72
2022-10-19T09:55:05.405Z,99775.13
2022-10-19T09:57:32.866Z,99778.16
2022-10-19T10:00:00.208Z,99767.78
2022-10-19T10:02:31.883Z,99770.22
2022-10-19T10:05:04.505Z,99770.91
2022-10-19T10:07:37.953Z,99754.84
2022-10-19T10:10:09.291Z,99758.72
2022-10-19T10:12:36.499Z,99754.56
2022-10-19T10:15:04.384Z,99757.87
2022-10-19T10:17:31.834Z,99749.28
2022-10-19T10:19:58.929Z,99755.22
2022-10-19T10:22:30.471Z,99756.91
2022-10-19T10:24:57.950Z,99753.44
2022-10-19T10:27:32.575Z,99744.31
2022-10-19T10:30:00.279Z,99748.97
2022-10-19T10:32:28.648Z,99738.91
2022-10-19T10:35:02.739Z,99733.28
2022-10-19T10:37:36.919Z,99734.06
2022-10-19T10:40:05.075Z,99733.97
2022-10-19T10:42:35.130Z,99730.12
2022-10-19T10:45:02.506Z,99726.25
2022-10-19T10:47:29.748Z,99728.47
2022-10-19T10:50:05.909Z,99728.16
2022-10-19T10:52:33.687Z,99724.75
2022-10-19T10:55:02.869Z,99710.38
2022-10-19T10:57:37.772Z,99714.66
2022-10-19T11:00:12.409Z,99707.66
2022-10-19T11:02:40.793Z,99697.84
2022-10-19T11:05:14.514Z,99704.94
2022-10-19T11:07:44.029Z,99697.59
2022-10-19T11:10:17.169Z,99695.22
2022-10-19T11:12:46.235Z,99692.84
2022-10-19T11:15:21.192Z,99679.44
2022-10-19T11:17:52.053Z,99685.62
2022-10-19T11:20:19.459Z,99691.81
2022-10-19T11:22:54.919Z,99680.22
2022-10-19T11:25:45.237Z,99688.91
2022-10-19T11:28:17.463Z,99688.47
2022-10-19T11:30:54.078Z,99686.72
2022-10-19T11:33:40.215Z,99690.03
2022-10-19T11:36:30.080Z,99681.53
2022-10-19T11:38:57.163Z,99680.06
2022-10-19T11:41:43.497Z,99674.91
2022-10-19T11:44:10.614Z,99679.38
2022-10-19T11:46:48.768Z,99670.25
2022-10-19T11:49:21.968Z,99670.84
2022-10-19T11:51:51.638Z,99674.56
2022-10-19T11:54:18.704Z,99669.41
2022-10-19T11:57:11.765Z,99678.19
2022-10-19T12:00:00.187Z,99672.97
2022-10-19T12:02:54.523Z,99672.25
2022-10-19T12:05:24.919Z,99666.94
2022-10-19T12:07:55.938Z,99657.87
2022-10-19T12:10:32.609Z,99664.81
2022-10-19T12:13:03.897Z,99655.53
2022-10-19T12:15:44.458Z,99654.81
2022-10-19T12:18:16.723Z,99654.28
2022-10-19T12:20:48.338Z,99664.63
2022-10-19T12:23:21.454Z,99654.78
2022-10-19T12:25:48.855Z,99658.25
2022-10-19T12:28:22.775Z,99660.25
2022-10-19T12:30:50.508Z,99653.06
2022-10-19T12:33:25.866Z,99650.94
2022-10-19T12:35:59.481Z,99651.81
2022-10-19T12:38:33.898Z,99647.56
2022-10-19T12:41:05.157Z,99649.56
2022-10-19T12:43:35.692Z,99644.97
2022-10-19T12:46:26.189Z,99642.22
2022-10-19T12:49:12.250Z,99630.88
2022-10-19T12:51:46.355Z,99644.63
2022-10-19T12:54:13.714Z,99637.03
2022-10-19T12:56:47.931Z,99645.09
2022-10-19T12:59:25.119Z,99621.84
2022-10-19T13:01:52.695Z,99621.44
2022-10-19T13:04:21.204Z,99619.34
2022-10-19T13:06:52.456Z,99625.63
2022-10-19T13:09:29.232Z,99620.72
2022-10-19T13:12:17.812Z,99621.28
2022-10-19T13:14:49.090Z,99620.87
2022-10-19T13:17:35.101Z,99625.56
2022-10-19T13:20:15.143Z,99624.12
2022-10-19T13:22:49.513Z,99618.63
2022-10-19T13:25:21.199Z,99621.38
2022-10-19T13:27:49.013Z,99617.94
2022-10-19T13:30:39.683Z,99627.59
2022-10-19T13:33:25.871Z,99635.09
2022-10-19T13:35:59.150Z,99619.66
2022-10-19T13:38:27.364Z,99641.88
2022-10-19T13:40:54.777Z,99635.75
2022-10-19T13:43:25.675Z,99629.19
2022-10-19T13:46:08.195Z,99634.16
2022-10-19T13:48:35.560Z,99608.38
2022-10-19T13:51:21.231Z,99627.53
2022-10-19T13:53:51.910Z,99630.63
2022-10-19T13:56:25.121Z,99624.50
2022-10-19T13:59:11.574Z,99619.47
2022-10-19T14:01:54.333Z,99616.47
2022-10-19T14:04:21.762Z,99617.59
2022-10-19T14:06:55.084Z,99631.66
2022-10-19T14:09:25.704Z,99637.34
2022-10-19T14:11:53.211Z,99635.22
2022-10-19T14:14:21.750Z,99630.84
2022-10-19T14:16:59.602Z,99623.72
2022-10-19T14:19:31.183Z,99631.94
2022-10-19T14:21:59.857Z,99626.34
2022-10-19T14:24:31.635Z,99622.38
2022-10-19T14:27:03.050Z,99632.44
2022-10-19T14:29:30.344Z,99635.09
2022-10-19T14:31:58.589Z,99627.91
2022-10-19T14:34:26.068Z,99613.50
2022-10-19T14:36:53.217Z,99616.84
2022-10-19T14:39:24.330Z,99620.50
2022-10-19T14:41:53.186Z,99612.22
2022-10-19T14:44:32.366Z,99623.16
2022-10-19T14:47:00.886Z,99632.88
2022-10-19T14:49:27.999Z,99613.56
2022-10-19T14:51:56.007Z,99624.16
2022-10-19T14:54:29.224Z,99624.44
2022-10-19T14:56:58.134Z,99633.34
2022-10-19T14:59:34.710Z,99625.06
2022-10-19T15:02:02.742Z,99624.59
2022-10-19T15:04:31.940Z,99620.31
2022-10-19T15:06:59.292Z,99623.53
2022-10-19T15:09:37.005Z,99632.25
2022-10-19T15:12:08.799Z,99615.03
2022-10-19T15:14:37.042Z,99617.47
2022-10-19T15:17:05.935Z,99624.38
2022-10-19T15:19:33.237Z,99615.97
2022-10-19T15:22:31.765Z,99629.56
2022-10-19T15:40:45.526Z,99622.50
2022-10-19T15:43:34.747Z,99627.19
2022-10-19T15:46:06.347Z,99634.56
2022-10-19T15:48:40.649Z,99633.59
2022-10-19T16:05:08.660Z,99662.47
2022-10-19T16:07:37.258Z,99667.75
2022-10-19T16:10:05.226Z,99661.53
2022-10-19T16:12:32.351Z,99658.13
2022-10-19T16:14:59.989Z,99648.34
2022-10-19T16:17:27.100Z,99657.94
2022-10-19T16:19:55.323Z,99650.28
2022-10-19T16:22:23.194Z,99658.37
2022-10-19T16:24:50.478Z,99659.84
2022-10-19T16:27:17.772Z,99668.09
2022-10-19T16:29:50.025Z,99667.78
2022-10-19T16:32:17.175Z,99660.53
2022-10-19T16:34:44.292Z,99662.59
2022-10-19T16:37:11.701Z,99665.75
2022-10-19T16:39:39.101Z,99673.91
2022-10-19T16:42:06.430Z,99684.06
2022-10-19T16:44:33.979Z,99673.91
2022-10-19T16:47:01.742Z,99688.47
2022-10-19T16:49:29.141Z,99698.72
2022-10-19T16:51:57.676Z,99695.94
2022-10-19T16:54:26.841Z,99695.41
2022-10-19T16:56:55.916Z,99697.63
2022-10-19T16:59:23.752Z,99706.47
2022-10-19T17:01:51.431Z,99713.34
2022-10-19T17:04:19.500Z,99713.38
2022-10-19T17:06:47.416Z,99718.03
2022-10-19T17:09:37.101Z,99727.00
2022-10-19T17:12:02.503Z,99732.69
2022-10-19T17:14:30.182Z,99728.31
2022-10-19T17:16:57.739Z,99730.72
2022-10-19T17:19:25.736Z,99730.72
2022-10-19T17:21:55.246Z,99733.38
2022-10-19T17:24:23.431Z,99734.09
2022-10-19T17:26:52.396Z,99732.56
2022-10-19T17:29:21.417Z,99720.31
2022-10-19T17:31:49.495Z,99723.97
2022-10-19T17:34:17.290Z,99718.75
2022-10-19T17:36:45.070Z,99724.69
2022-10-19T17:39:14.632Z,99719.69
2022-10-19T17:41:42.487Z,99729.03
2022-10-19T17:44:10.123Z,99710.91
2022-10-19T17:46:37.845Z,99711.91
2022-10-19T17:49:05.535Z,99719.34
2022-10-19T17:51:33.795Z,99731.91
2022-10-19T17:54:02.899Z,99730.81
2022-10-19T17:56:30.939Z,99741.66
2022-10-19T17:59:03.565Z,99744.16
2022-10-19T18:01:31.172Z,99742.34
2022-10-19T18:03:59.602Z,99750.09
2022-10-19T18:06:32.043Z,99752.75
2022-10-19T18:09:00.431Z,99753.31
2022-10-19T18:11:28.601Z,99751.09
2022-10-19T18:13:59.446Z,99756.00
2022-10-19T18:16:28.171Z,99764.75
2022-10-19T18:18:57.396Z,99766.78
2022-10-19T18:21:27.185Z,99766.50
2022-10-19T18:23:56.559Z,99757.53
2022-10-19T18:26:26.183Z,99758.22
2022-10-19T18:28:54.518Z,99760.09
2022-10-19T18:31:23.307Z,99757.34
2022-10-19T18:33:55.891Z,99757.78
2022-10-19T18:36:24.243Z,99771.53
2022-10-19T18:38:52.482Z,99767.38
2022-10-19T18:41:23.601Z,99791.66
2022-10-19T18:43:55.801Z,99788.78
2022-10-19T18:46:24.409Z,99790.19
2022-10-19T18:48:52.429Z,99782.31
2022-10-19T18:51:23.892Z,99794.94
2022-10-19T18:53:52.000Z,99786.84
2022-10-19T18:56:22.353Z,99791.06
2022-10-19T18:58:50.403Z,99793.00
2022-10-19T19:01:19.077Z,99804.00
2022-10-19T19:03:47.597Z,99805.66
2022-10-19T19:06:17.368Z,99812.59
2022-10-19T19:08:45.332Z,99809.63
2022-10-19T19:11:19.633Z,99811.28
2022-10-19T19:13:48.162Z,99814.62
2022-10-19T19:16:15.785Z,99826.06
2022-10-19T19:18:45.839Z,99813.59
2022-10-19T19:21:23.890Z,99819.31
2022-10-19T19:23:51.435Z,99816.66
2022-10-19T19:26:25.459Z,99810.06
2022-10-19T19:28:52.970Z,99802.84
2022-10-19T19:31:21.815Z,99803.37
2022-10-19T19:33:50.560Z,99818.22
2022-10-19T19:36:18.438Z,99820.97
2022-10-19T19:38:46.895Z,99828.56
2022-10-19T19:41:15.300Z,99824.75
2022-10-19T19:43:44.060Z,99838.69
2022-10-19T19:46:13.724Z,99827.72
2022-10-19T19:48:42.847Z,99831.56
2022-10-19T19:51:22.034Z,99837.69
2022-10-19T19:53:50.051Z,99841.87
2022-10-19T19:56:18.393Z,99831.94
2022-10-19T19:58:46.030Z,99837.34
2022-10-19T20:01:18.137Z,99832.94
2022-10-19T20:03:46.578Z,99841.72
2022-10-19T20:06:14.813Z,99855.44
2022-10-19T20:08:42.463Z,99840.03
2022-10-19T20:11:11.844Z,99846.38
2022-10-19T20:13:40.179Z,99847.25
2022-10-19T20:16:09.425Z,99851.63
2022-10-19T20:18:37.480Z,99855.13
2022-10-19T20:21:05.624Z,99868.16
2022-10-19T20:23:33.619Z,99855.13
2022-10-19T20:26:01.658Z,99859.44
2022-10-19T20:28:29.316Z,99858.63
2022-10-19T20:31:15.323Z,99869.06
2022-10-19T20:33:43.769Z,99881.31
2022-10-19T20:36:15.553Z,99882.03
2022-10-19T20:41:46.398Z,99879.44
2022-10-19T20:44:14.160Z,99878.59
2022-10-19T20:46:41.589Z,99882.06
2022-10-19T20:49:10.312Z,99885.66
2022-10-19T20:51:38.905Z,99882.09
2022-10-19T20:54:07.784Z,99886.37
2022-10-19T20:56:36.572Z,99897.00
2022-10-19T20:59:05.920Z,99903.78
2022-10-19T21:01:34.318Z,99904.84
2022-10-19T21:04:05.827Z,99905.69
2022-10-19T21:06:34.847Z,99909.13
2022-10-19T21:09:02.380Z,99907.47
2022-10-19T21:11:31.081Z,99921.34
2022-10-19T21:13:59.538Z,99905.62
2022-10-19T21:16:37.591Z,99906.50
2022-10-19T21:19:07.109Z,99902.25
2022-10-19T21:21:38.813Z,99910.94
2022-10-19T21:27:05.853Z,99913.59
2022-10-19T21:29:33.709Z,99911.78
2022-10-19T21:32:01.018Z,99917.06
2022-10-19T21:34:29.212Z,99915.31
2022-10-19T21:36:57.057Z,99911.81
2022-10-19T21:39:24.250Z,99908.25
2022-10-19T21:41:51.421Z,99907.47
2022-10-19T21:44:18.844Z,99914.38
2022-10-19T21:46:49.020Z,99916.91
2022-10-19T21:49:16.265Z,99923.91
2022-10-19T21:51:47.595Z,99927.06
2022-10-19T21:54:15.790Z,99919.34
2022-10-19T21:56:43.021Z,99924.63
2022-10-19T21:59:12.176Z,99922.00
2022-10-19T22:01:41.334Z,99919.97
2022-10-19T22:04:11.408Z,99923.25
2022-10-19T22:06:38.589Z,99914.34
2022-10-19T22:09:06.597Z,99923.97
2022-10-19T22:11:34.109Z,99928.91
2022-10-19T22:14:02.010Z,99933.63
2022-10-19T22:16:29.401Z,99933.53
2022-10-19T22:18:56.927Z,99920.84
2022-10-19T22:21:30.602Z,99911.91
2022-10-19T22:24:02.973Z,99917.59
2022-10-19T22:26:30.875Z,99919.16
2022-10-19T22:28:59.242Z,99914.75
2022-10-19T22:31:26.836Z,99924.09
2022-10-19T22:33:54.047Z,99921.19
2022-10-19T22:36:21.449Z,99919.97
2022-10-19T22:38:48.576Z,99916.28
2022-10-19T22:41:53.581Z,99917.03
2022-10-19T22:44:39.201Z,99910.88
2022-10-19T22:47:06.828Z,99917.31
2022-10-19T22:49:34.105Z,99910.16
2022-10-19T22:52:01.332Z,99912.50
2022-10-19T22:54:29.115Z,99921.38
2022-10-19T22:56:56.309Z,99924.81
2022-10-19T22:59:23.485Z,99918.91
2022-10-19T23:01:51.059Z,99913.62
2022-10-19T23:04:18.342Z,99923.53
2022-10-19T23:06:45.786Z,99916.72
2022-10-19T23:09:13.401Z,99908.38
2022-10-19T23:11:40.797Z,99918.50
2022-10-19T23:14:08.198Z,99908.28
2022-10-19T23:16:35.651Z,99916.75
2022-10-19T23:19:02.997Z,99921.12
2022-10-19T23:21:30.326Z,99922.72
2022-10-19T23:23:57.998Z,99923.31
2022-10-19T23:26:25.154Z,99933.25
2022-10-19T23:28:52.363Z,99932.63
2022-10-19T23:31:23.443Z,99930.69
2022-10-19T23:33:51.029Z,99941.34
2022-10-19T23:36:20.180Z,99945.31
2022-10-19T23:38:48.427Z,99946.00
2022-10-19T23:41:15.943Z,99946.59
2022-10-19T23:43:43.207Z,99951.22
2022-10-19T23:46:11.265Z,99961.69
2022-10-19T23:48:38.715Z,99956.00
2022-10-19T23:51:13.257Z,99951.47
2022-10-19T23:53:41.726Z,99958.41
2022-10-19T23:56:12.808Z,99964.66
2022-10-19T23:58:40.175Z,99961.59
